createdAt,value
2022-09-09T00:07:56.924Z,17.62
2022-09-09T00:18:25.225Z,17.60
2022-09-09T00:28:27.999Z,17.57
2022-09-09T00:38:34.259Z,17.65
2022-09-09T00:48:51.991Z,17.91
2022-09-09T00:59:09.022Z,17.86
2022-09-09T01:09:29.615Z,17.85
2022-09-09T01:19:54.802Z,17.85
2022-09-09T01:29:57.157Z,17.75
2022-09-09T01:39:59.030Z,17.86
2022-09-09T01:50:01.823Z,17.85
2022-09-09T02:00:07.798Z,17.96
2022-09-09T02:10:29.717Z,18.24
2022-09-09T02:20:40.413Z,18.17
2022-09-09T02:30:45.331Z,18.16
2022-09-09T02:40:49.606Z,18.29
2022-09-09T02:50:57.365Z,18.32
2022-09-09T03:01:02.436Z,18.40
2022-09-09T03:11:05.455Z,18.36
2022-09-09T03:21:10.621Z,18.40
2022-09-09T03:31:13.459Z,18.54
2022-09-09T03:41:16.363Z,18.53
2022-09-09T03:51:18.093Z,18.46
2022-09-09T04:01:20.263Z,18.52
2022-09-09T04:11:22.527Z,18.61
2022-09-09T04:21:25.875Z,18.62
2022-09-09T04:31:28.738Z,18.73
2022-09-09T04:41:32.631Z,18.76
2022-09-09T04:51:34.658Z,18.86
2022-09-09T05:01:36.980Z,18.92
2022-09-09T05:11:39.962Z,18.98
2022-09-09T05:21:45.924Z,19.10
2022-09-09T05:31:48.393Z,19.32
2022-09-09T05:41:52.797Z,19.53
2022-09-09T05:51:55.271Z,19.61
2022-09-09T06:01:58.540Z,19.76
2022-09-09T06:12:11.268Z,19.88
2022-09-09T06:22:14.054Z,20.04
2022-09-09T06:32:16.943Z,20.02
2022-09-09T06:42:19.807Z,20.12
2022-09-09T06:52:25.854Z,20.19
2022-09-09T07:02:29.507Z,20.25
2022-09-09T07:12:31.412Z,20.33
2022-09-09T07:22:34.811Z,20.46
2022-09-09T07:32:36.955Z,20.62
2022-09-09T07:42:38.902Z,21.06
2022-09-09T07:53:21.116Z,21.04
2022-09-09T08:03:23.795Z,20.95
2022-09-09T08:13:25.968Z,21.23
2022-09-09T08:23:28.669Z,21.41
2022-09-09T08:33:30.341Z,21.45
2022-09-09T08:43:33.423Z,21.86
2022-09-09T08:53:40.044Z,22.23
2022-09-09T09:03:42.669Z,22.54
2022-09-09T09:13:51.277Z,22.36
2022-09-09T09:24:01.688Z,22.35
2022-09-09T09:34:06.198Z,22.36
2022-09-09T09:44:28.505Z,22.52
2022-09-09T09:54:32.663Z,22.57
2022-09-09T10:04:36.538Z,22.67
2022-09-09T10:14:57.456Z,23.03
2022-09-09T10:24:59.415Z,23.31
2022-09-09T10:35:04.115Z,22.10
2022-09-09T10:45:15.224Z,22.65
2022-09-09T10:55:20.825Z,23.22
2022-09-09T11:05:30.143Z,23.46
2022-09-09T11:15:42.911Z,23.44
2022-09-09T11:25:46.825Z,21.78
2022-09-09T11:35:54.673Z,21.48
2022-09-09T11:46:01.720Z,22.79
2022-09-09T11:56:16.752Z,23.23
2022-09-09T12:06:26.263Z,23.36
2022-09-09T12:16:34.409Z,22.08
2022-09-09T12:26:43.221Z,22.16
2022-09-09T12:36:49.611Z,22.70
2022-09-09T12:46:54.284Z,22.98
2022-09-09T12:56:56.169Z,23.03
2022-09-09T13:07:07.971Z,23.33
2022-09-09T13:17:18.741Z,22.80
2022-09-09T13:27:31.782Z,21.56
2022-09-09T13:37:38.366Z,22.62
2022-09-09T13:47:40.144Z,22.97
2022-09-09T13:57:51.359Z,21.77
2022-09-09T14:08:24.229Z,21.99
2022-09-09T14:18:26.507Z,22.73
2022-09-09T14:28:53.876Z,23.25
2022-09-09T14:38:51.757Z,22.92
2022-09-09T14:59:04.549Z,23.83
2022-09-09T15:09:06.588Z,22.40
2022-09-09T15:19:08.471Z,21.65
2022-09-09T15:29:11.564Z,22.76
2022-09-09T15:39:17.743Z,22.00
2022-09-09T15:49:23.079Z,22.71
2022-09-09T15:59:25.728Z,23.00
2022-09-09T16:09:27.885Z,21.58
2022-09-09T16:19:29.610Z,21.76
2022-09-09T16:29:31.566Z,22.22
2022-09-09T16:39:33.552Z,22.44
2022-09-09T16:49:35.515Z,21.14
2022-09-09T16:59:39.412Z,21.46
2022-09-09T17:09:41.538Z,21.90
2022-09-09T17:19:45.037Z,21.97
2022-09-09T17:29:47.916Z,20.74
2022-09-09T17:39:51.852Z,21.20
2022-09-09T17:49:54.017Z,21.49
2022-09-09T17:59:56.214Z,21.68
2022-09-09T18:21:24.038Z,21.86
2022-09-09T18:31:27.656Z,20.97
2022-09-09T18:41:38.016Z,20.46
2022-09-09T18:51:41.706Z,21.29
2022-09-09T19:01:44.867Z,20.06
2022-09-09T19:11:49.327Z,20.27
2022-09-09T19:21:52.557Z,21.30
2022-09-09T19:32:36.433Z,19.54
2022-09-09T19:42:18.689Z,19.54
2022-09-09T19:52:21.364Z,21.05
2022-09-09T20:02:25.387Z,19.73
2022-09-09T20:12:27.363Z,20.19
2022-09-09T20:22:33.722Z,21.16
2022-09-09T20:32:36.300Z,21.58
2022-09-09T20:42:38.966Z,20.08
2022-09-09T20:52:40.822Z,19.52
2022-09-09T21:02:42.685Z,20.96
2022-09-09T21:12:48.835Z,20.11
2022-09-09T21:22:50.601Z,19.40
2022-09-09T21:32:52.570Z,20.82
2022-09-09T21:42:54.446Z,19.81
2022-09-09T21:52:58.426Z,20.19
2022-09-09T22:03:00.738Z,20.87
2022-09-09T22:13:02.907Z,19.75
2022-09-09T22:23:04.613Z,20.20
2022-09-09T22:33:06.380Z,20.28
2022-09-09T22:43:19.743Z,19.43
2022-09-09T22:53:21.483Z,20.39
2022-09-09T23:03:23.447Z,18.91
2022-09-09T23:13:25.592Z,20.02
2022-09-09T23:23:28.400Z,18.75
2022-09-09T23:33:30.344Z,18.19
2022-09-09T23:43:32.434Z,19.71
2022-09-09T23:53:34.119Z,20.18
